Time;durP1;ratioP1;P1;durP2;ratioP2;P2;SDS_P1;SDS_P2;PMS_P1;PMS_P2;Temp;Humidity;BMP_temperature;BMP_pressure;BME280_temperature;BME280_humidity;BME280_pressure;Samples;Min_cycle;Max_cycle;Signal;HPM_P1;HPM_P2
2023/12/21 00:12:03;;;;;;;31.80;12.20;;;;;;;5.69;89.42;98779.05;682053;1261;140266;-83
2023/12/21 00:27:41;;;;;;;78.40;22.40;;;;;;;5.68;90.26;98767.64;682293;1263;138689;-82
2023/12/21 00:43:18;;;;;;;35.10;11.50;;;;;;;5.81;89.83;98751.16;682220;1263;139050;-82
2023/12/21 00:58:59;;;;;;;14.40;6.40;;;;;;;5.85;90.04;98740.73;682283;1266;138668;-81
2023/12/21 01:14:37;;;;;;;26.30;8.60;;;;;;;5.68;89.95;98728.95;682055;1263;138823;-81
2023/12/21 01:30:14;;;;;;;19.30;7.90;;;;;;;5.59;90.31;98707.47;682198;1263;139856;-81
2023/12/21 01:45:51;;;;;;;17.10;6.80;;;;;;;5.65;90.48;98693.75;682170;1261;140278;-81
2023/12/21 02:01:28;;;;;;;33.60;10.30;;;;;;;5.74;89.70;98659.39;682154;1260;138404;-81
2023/12/21 02:17:18;;;;;;;57.50;17.10;;;;;;;5.92;89.92;98634.59;682313;1263;138530;-81
2023/12/21 02:32:55;;;;;;;24.80;9.30;;;;;;;5.96;90.46;98608.05;674530;1263;10139541;-80
2023/12/21 02:48:32;;;;;;;22.40;8.20;;;;;;;5.86;90.35;98572.03;681811;1262;139092;-80
2023/12/21 03:04:09;;;;;;;15.10;6.60;;;;;;;5.86;91.18;98556.90;681746;1266;138332;-80
2023/12/21 03:19:47;;;;;;;29.30;11.10;;;;;;;6.03;91.30;98545.09;681717;1261;138687;-81
2023/12/21 03:35:25;;;;;;;26.90;10.10;;;;;;;6.12;91.91;98515.91;681694;1262;139460;-82
2023/12/21 03:51:01;;;;;;;14.60;6.20;;;;;;;6.29;92.11;98490.73;682324;1261;138548;-80
2023/12/21 04:06:38;;;;;;;12.30;6.30;;;;;;;6.54;92.56;98466.15;682081;1263;139281;-80
2023/12/21 04:22:16;;;;;;;13.60;6.30;;;;;;;6.64;92.33;98442.20;682215;1259;138489;-81
2023/12/21 04:37:54;;;;;;;13.00;7.10;;;;;;;6.72;93.31;98421.98;681896;1259;139041;-81
2023/12/21 04:53:31;;;;;;;13.60;6.40;;;;;;;6.54;94.41;98391.30;682323;1260;138867;-81
2023/12/21 05:09:08;;;;;;;25.10;11.20;;;;;;;6.72;94.32;98356.14;682492;1260;138786;-80
2023/12/21 05:24:46;;;;;;;18.90;9.80;;;;;;;6.54;95.30;98333.30;682134;1259;138882;-80
2023/12/21 05:40:23;;;;;;;16.30;8.90;;;;;;;6.53;96.54;98306.98;682221;1259;138291;-80
2023/12/21 05:56:00;;;;;;;16.20;8.90;;;;;;;6.40;96.08;98277.54;682213;1260;138512;-79
2023/12/21 06:11:37;;;;;;;18.50;9.10;;;;;;;6.45;95.72;98280.01;682398;1260;139233;-80
2023/12/21 06:27:17;;;;;;;14.20;7.90;;;;;;;6.36;95.92;98249.89;682375;1262;139212;-80
2023/12/21 06:42:55;;;;;;;13.90;8.90;;;;;;;6.30;95.71;98228.21;682063;1259;139129;-80
2023/12/21 06:58:33;;;;;;;12.70;7.00;;;;;;;6.36;96.29;98189.57;682237;1265;138497;-81
2023/12/21 07:14:11;;;;;;;12.70;6.80;;;;;;;6.18;97.25;98158.67;682239;1262;139870;-82
2023/12/21 07:29:49;;;;;;;12.00;7.00;;;;;;;6.08;97.79;98132.60;682258;1263;138332;-81
2023/12/21 07:45:26;;;;;;;11.40;7.00;;;;;;;6.11;98.59;98091.65;682085;1262;138290;-81
2023/12/21 08:01:03;;;;;;;12.00;7.40;;;;;;;6.14;99.13;98063.47;681935;1261;139565;-81
2023/12/21 08:16:40;;;;;;;14.20;8.30;;;;;;;6.36;98.96;98026.23;682151;1263;139377;-82
2023/12/21 08:32:19;;;;;;;35.90;19.50;;;;;;;6.45;99.23;97990.58;682031;1263;139335;-81
2023/12/21 08:47:56;;;;;;;34.40;19.20;;;;;;;6.52;99.34;97962.02;681816;1265;138867;-81
2023/12/21 09:03:35;;;;;;;32.30;17.30;;;;;;;6.58;99.91;97919.70;681873;1260;139635;-83
2023/12/21 09:19:12;;;;;;;25.40;13.80;;;;;;;6.88;100.00;97886.15;681788;1262;138797;-84
2023/12/21 09:34:52;;;;;;;26.10;14.80;;;;;;;6.97;99.89;97839.35;681951;1265;139425;-83
2023/12/21 09:50:30;;;;;;;35.70;17.70;;;;;;;7.27;99.52;97779.48;682082;1260;139656;-82
2023/12/21 10:06:07;;;;;;;30.70;15.80;;;;;;;7.39;99.34;97741.46;682200;1262;139061;-81
2023/12/21 10:21:48;;;;;;;41.40;19.90;;;;;;;7.44;99.84;97682.77;682231;1263;138847;-81
2023/12/21 10:37:26;;;;;;;44.80;24.40;;;;;;;7.59;100.00;97613.92;681893;1259;138926;-81
2023/12/21 10:53:05;;;;;;;;;;;;;;;7.75;100.00;97558.60;682097;1265;138899;-81
2023/12/21 11:08:46;;;;;;;216.60;85.20;;;;;;;8.03;100.00;97506.52;681979;1264;125283;-80
2023/12/21 11:24:29;;;;;;;30.50;19.10;;;;;;;8.17;100.00;97448.13;682049;1264;139570;-81
2023/12/21 11:40:11;;;;;;;25.10;14.90;;;;;;;8.35;100.00;97381.81;682245;1265;138489;-81
2023/12/21 11:55:51;;;;;;;24.10;13.70;;;;;;;8.56;100.00;97314.58;682227;1266;140269;-80
2023/12/21 12:11:28;;;;;;;17.20;10.90;;;;;;;8.88;100.00;97248.49;681960;1265;139281;-80
2023/12/21 12:27:06;;;;;;;15.00;9.30;;;;;;;9.01;100.00;97186.90;682207;1264;138896;-80
2023/12/21 12:42:44;;;;;;;16.60;9.10;;;;;;;9.20;100.00;97129.63;682179;1263;139713;-81
2023/12/21 12:58:21;;;;;;;16.00;10.80;;;;;;;9.47;100.00;97070.77;681948;1263;138770;-81
2023/12/21 13:14:04;;;;;;;16.70;8.80;;;;;;;9.34;100.00;97011.97;682214;1266;138871;-81
2023/12/21 13:29:41;;;;;;;11.40;7.10;;;;;;;9.17;100.00;96944.20;682061;1260;138578;-81
2023/12/21 13:45:22;;;;;;;19.10;9.60;;;;;;;9.19;100.00;96889.39;682052;1265;138657;-83
2023/12/21 14:00:59;;;;;;;12.90;8.00;;;;;;;9.17;100.00;96844.23;681685;1262;139090;-82
2023/12/21 14:16:37;;;;;;;9.80;4.90;;;;;;;9.24;100.00;96792.80;681914;1266;138551;-83
2023/12/21 14:32:16;;;;;;;8.50;4.90;;;;;;;8.93;100.00;96710.66;674093;1264;10133928;-84
2023/12/21 14:47:53;;;;;;;7.50;5.10;;;;;;;8.85;100.00;96659.00;682033;1263;138901;-86
2023/12/21 15:03:30;;;;;;;7.90;4.90;;;;;;;8.87;100.00;96607.09;682101;1262;138496;-85
2023/12/21 15:19:10;;;;;;;21.10;11.70;;;;;;;8.99;100.00;96541.50;681760;1264;138515;-85
2023/12/21 15:34:46;;;;;;;8.80;5.90;;;;;;;9.04;100.00;96491.48;682063;1264;139406;-84
2023/12/21 15:50:25;;;;;;;10.10;7.90;;;;;;;9.21;100.00;96444.57;682134;1264;138553;-83
2023/12/21 16:06:03;;;;;;;29.10;25.90;;;;;;;9.25;100.00;96394.20;682027;1266;139686;-85
2023/12/21 16:21:39;;;;;;;18.90;10.50;;;;;;;9.16;100.00;96346.59;681990;1265;138722;-84
2023/12/21 16:37:24;;;;;;;19.90;10.90;;;;;;;9.15;100.00;96301.54;681863;1263;139288;-83
2023/12/21 16:53:01;;;;;;;21.50;10.30;;;;;;;9.20;100.00;96276.69;681756;1265;138669;-84
2023/12/21 17:08:38;;;;;;;38.10;18.80;;;;;;;9.37;100.00;96250.39;682121;1266;138628;-83
2023/12/21 17:24:16;;;;;;;18.50;10.90;;;;;;;9.65;100.00;96211.99;681921;1265;138850;-85
2023/12/21 17:39:56;;;;;;;12.00;8.10;;;;;;;9.64;100.00;96180.27;681870;1265;139282;-82
2023/12/21 17:55:40;;;;;;;9.30;6.00;;;;;;;9.56;100.00;96143.56;681873;1261;139939;-82
2023/12/21 18:28:09;;;;;;;10.90;6.90;;;;;;;10.00;100.00;96095.23;681965;1264;124941;-85
2023/12/21 18:43:49;;;;;;;19.50;8.40;;;;;;;10.07;100.00;96120.33;681895;1266;140103;-84
2023/12/21 18:59:28;;;;;;;7.30;4.20;;;;;;;10.25;100.00;96131.55;682091;1269;139305;-84
2023/12/21 19:15:05;;;;;;;15.30;6.20;;;;;;;10.14;100.00;96154.56;682180;1261;138577;-83
2023/12/21 19:30:42;;;;;;;23.50;10.50;;;;;;;9.94;100.00;96177.52;681990;1260;139327;-82
2023/12/21 19:46:20;;;;;;;30.50;13.70;;;;;;;9.83;99.14;96189.86;681972;1260;138919;-81
2023/12/21 20:01:57;;;;;;;20.30;6.80;;;;;;;9.64;98.61;96216.06;681869;1260;138922;-81
2023/12/21 20:17:35;;;;;;;40.70;15.80;;;;;;;9.66;97.26;96233.69;681978;1261;139031;-83
2023/12/21 20:33:13;;;;;;;22.30;8.70;;;;;;;9.59;97.56;96257.97;682066;1264;139224;-81
2023/12/21 20:48:50;;;;;;;32.60;11.50;;;;;;;9.49;96.73;96288.94;681659;1265;139039;-82
2023/12/21 21:04:30;;;;;;;33.50;10.90;;;;;;;9.39;92.85;96295.08;681708;1262;139194;-81
2023/12/21 21:20:09;;;;;;;23.80;7.00;;;;;;;9.24;91.83;96311.12;681904;1260;138650;-81
2023/12/21 21:35:45;;;;;;;17.40;5.00;;;;;;;8.85;91.76;96321.39;682047;1259;138975;-82
2023/12/21 21:51:24;;;;;;;22.50;6.10;;;;;;;8.47;90.36;96308.69;682150;1260;138330;-82
2023/12/21 22:07:03;;;;;;;;;;;;;;;8.31;90.60;96316.84;681715;1267;138658;-82
2023/12/21 22:22:39;;;;;;;19.90;5.20;;;;;;;8.28;89.03;96316.34;682131;1260;124965;-82
2023/12/21 22:38:20;;;;;;;11.90;3.40;;;;;;;8.11;88.52;96325.31;682124;1260;138458;-82
2023/12/21 22:53:57;;;;;;;14.00;3.80;;;;;;;8.11;88.09;96312.20;682211;1259;138357;-81
2023/12/21 23:09:38;;;;;;;14.80;3.70;;;;;;;8.01;86.82;96311.08;682018;1263;138630;-82
2023/12/21 23:25:15;;;;;;;72.00;25.90;;;;;;;7.83;85.69;96294.39;681998;1262;138336;-81
2023/12/21 23:40:52;;;;;;;20.20;5.20;;;;;;;7.75;84.18;96294.70;682395;1262;139735;-81
2023/12/21 23:56:29;;;;;;;44.00;15.40;;;;;;;7.56;82.83;96292.05;682254;1262;138357;-80
